createdAt,value
2023-05-12T00:01:22.459Z,9.80
2023-05-12T00:03:49.770Z,9.80
2023-05-12T00:06:17.245Z,9.80
2023-05-12T00:08:44.318Z,9.70
2023-05-12T00:11:11.808Z,9.70
2023-05-12T00:13:38.862Z,9.70
2023-05-12T00:16:07.009Z,9.70
2023-05-12T00:18:34.490Z,9.60
2023-05-12T00:21:01.987Z,9.60
2023-05-12T00:23:28.966Z,9.60
2023-05-12T00:25:56.286Z,9.50
2023-05-12T00:28:23.336Z,9.50
2023-05-12T00:30:50.840Z,9.50
2023-05-12T00:33:17.997Z,9.40
2023-05-12T00:35:45.771Z,9.40
2023-05-12T00:38:13.789Z,9.40
2023-05-12T00:40:41.403Z,9.30
2023-05-12T00:43:08.635Z,9.30
2023-05-12T00:45:36.675Z,9.30
2023-05-12T00:48:06.256Z,9.30
2023-05-12T00:50:34.367Z,9.30
2023-05-12T00:53:02.061Z,9.20
2023-05-12T00:55:30.363Z,9.20
2023-05-12T00:57:58.056Z,9.20
2023-05-12T01:00:29.910Z,9.20
2023-05-12T01:03:00.503Z,9.10
2023-05-12T01:05:36.255Z,9.10
2023-05-12T01:08:03.654Z,9.10
2023-05-12T01:10:31.028Z,9.10
2023-05-12T01:12:58.199Z,9.10
2023-05-12T01:15:26.154Z,9.00
2023-05-12T01:17:57.778Z,9.00
2023-05-12T01:20:28.068Z,9.00
2023-05-12T01:22:56.602Z,9.00
2023-05-12T01:25:31.106Z,8.90
2023-05-12T01:27:59.836Z,9.00
2023-05-12T01:30:27.656Z,8.90
2023-05-12T01:32:55.173Z,8.90
2023-05-12T01:35:22.503Z,8.90
2023-05-12T01:37:57.311Z,8.90
2023-05-12T01:40:24.746Z,8.90
2023-05-12T01:42:51.955Z,8.90
2023-05-12T01:45:19.430Z,8.80
2023-05-12T01:47:47.575Z,8.80
2023-05-12T01:50:14.928Z,8.80
2023-05-12T01:52:41.990Z,8.80
2023-05-12T01:55:12.730Z,8.80
2023-05-12T01:57:45.904Z,8.80
2023-05-12T02:00:15.015Z,8.70
2023-05-12T02:02:43.401Z,8.80
2023-05-12T02:05:12.700Z,8.80
2023-05-12T02:07:41.073Z,8.70
2023-05-12T02:10:10.053Z,8.70
2023-05-12T02:12:37.149Z,8.70
2023-05-12T02:15:05.177Z,8.70
2023-05-12T02:17:33.515Z,8.70
2023-05-12T02:20:05.371Z,8.70
2023-05-12T02:22:32.485Z,8.60
2023-05-12T02:24:59.851Z,8.60
2023-05-12T02:27:27.493Z,8.60
2023-05-12T02:29:55.747Z,8.60
2023-05-12T02:32:22.956Z,8.60
2023-05-12T02:34:51.669Z,8.50
2023-05-12T02:37:18.905Z,8.50
2023-05-12T02:39:46.922Z,8.50
2023-05-12T02:42:13.870Z,8.50
2023-05-12T02:44:41.783Z,8.50
2023-05-12T02:47:08.804Z,8.50
2023-05-12T02:49:36.441Z,8.50
2023-05-12T02:52:03.696Z,8.50
2023-05-12T02:54:31.248Z,8.50
2023-05-12T02:56:59.822Z,8.50
2023-05-12T02:59:27.523Z,8.50
2023-05-12T03:01:54.559Z,8.50
2023-05-12T03:04:22.241Z,8.50
2023-05-12T03:06:49.512Z,8.50
2023-05-12T03:09:16.998Z,8.60
2023-05-12T03:11:44.132Z,8.60
2023-05-12T03:14:11.493Z,8.60
2023-05-12T03:16:38.771Z,8.70
2023-05-12T03:19:06.320Z,8.70
2023-05-12T03:21:33.444Z,8.80
2023-05-12T03:24:00.705Z,8.80
2023-05-12T03:26:27.664Z,8.90
2023-05-12T03:28:55.343Z,8.90
2023-05-12T03:31:22.579Z,9.00
2023-05-12T03:33:49.965Z,9.10
2023-05-12T03:36:17.072Z,9.20
2023-05-12T03:38:44.607Z,9.40
2023-05-12T03:41:13.579Z,9.60
2023-05-12T03:43:40.941Z,9.70
2023-05-12T03:46:08.736Z,10.10
2023-05-12T03:48:37.594Z,10.50
2023-05-12T03:51:04.792Z,11.00
2023-05-12T03:53:32.084Z,12.10
2023-05-12T03:56:05.259Z,13.60
2023-05-12T03:58:33.549Z,15.10
2023-05-12T04:01:01.824Z,16.40
2023-05-12T04:03:29.754Z,17.40
2023-05-12T04:06:00.283Z,18.90
2023-05-12T04:08:28.570Z,19.80
2023-05-12T04:10:58.146Z,20.20
2023-05-12T04:13:25.958Z,20.70
2023-05-12T04:15:56.752Z,21.40
2023-05-12T04:18:27.620Z,21.20
2023-05-12T04:20:55.387Z,22.30
2023-05-12T04:23:23.233Z,22.90
2023-05-12T04:25:50.330Z,22.70
2023-05-12T04:28:17.657Z,23.60
2023-05-12T04:30:45.708Z,23.50
2023-05-12T04:33:13.133Z,22.70
2023-05-12T04:35:40.698Z,23.30
2023-05-12T04:38:09.517Z,23.60
2023-05-12T04:40:37.451Z,24.50
2023-05-12T04:43:05.330Z,24.90
2023-05-12T04:45:33.073Z,26.30
2023-05-12T04:48:00.494Z,27.20
2023-05-12T04:50:27.509Z,27.20
2023-05-12T04:52:54.840Z,28.00
2023-05-12T04:55:22.211Z,27.60
2023-05-12T04:57:50.086Z,28.10
2023-05-12T05:00:17.317Z,28.30
2023-05-12T05:02:46.318Z,28.90
2023-05-12T05:05:13.573Z,28.40
2023-05-12T05:07:40.886Z,28.60
2023-05-12T05:10:08.499Z,29.50
2023-05-12T05:12:36.316Z,30.90
2023-05-12T05:15:03.771Z,31.60
2023-05-12T05:17:31.088Z,31.50
2023-05-12T05:19:59.655Z,32.20
2023-05-12T05:22:30.793Z,31.40
2023-05-12T05:24:57.842Z,31.90
2023-05-12T05:27:25.215Z,32.60
2023-05-12T05:29:52.531Z,33.70
2023-05-12T05:32:19.956Z,33.80
2023-05-12T05:34:46.985Z,33.50
2023-05-12T05:37:14.242Z,33.50
2023-05-12T05:39:41.333Z,33.10
2023-05-12T05:42:11.719Z,33.50
2023-05-12T05:44:38.791Z,34.60
2023-05-12T05:47:06.826Z,34.20
2023-05-12T05:49:34.982Z,34.50
2023-05-12T05:52:06.185Z,33.80
2023-05-12T05:54:33.215Z,34.70
2023-05-12T05:57:02.184Z,34.40
2023-05-12T05:59:30.048Z,35.60
2023-05-12T06:01:58.078Z,36.40
2023-05-12T06:04:25.177Z,36.80
2023-05-12T06:06:52.780Z,36.70
2023-05-12T06:09:21.485Z,36.80
2023-05-12T06:11:50.186Z,37.70
2023-05-12T06:14:17.229Z,36.50
2023-05-12T06:16:44.599Z,36.30
2023-05-12T06:19:12.409Z,36.30
2023-05-12T06:21:41.234Z,35.40
2023-05-12T06:24:08.347Z,35.20
2023-05-12T06:26:36.720Z,35.60
2023-05-12T06:29:06.769Z,36.80
2023-05-12T06:31:34.642Z,36.80
2023-05-12T06:34:03.172Z,35.90
2023-05-12T06:36:30.665Z,34.50
2023-05-12T06:38:57.631Z,33.60
2023-05-12T06:41:25.311Z,34.40
2023-05-12T06:43:52.654Z,35.80
2023-05-12T06:46:28.438Z,35.40
2023-05-12T06:49:00.241Z,35.10
2023-05-12T06:51:27.616Z,35.70
2023-05-12T06:53:55.232Z,35.40
2023-05-12T06:56:23.283Z,35.80
2023-05-12T06:58:52.549Z,36.30
2023-05-12T07:01:22.181Z,35.70
2023-05-12T07:03:49.501Z,34.90
2023-05-12T07:06:19.303Z,34.90
2023-05-12T07:08:46.456Z,33.80
2023-05-12T07:11:20.362Z,32.60
2023-05-12T07:13:48.028Z,30.70
2023-05-12T07:16:16.005Z,30.40
2023-05-12T07:18:43.677Z,30.60
2023-05-12T07:21:11.303Z,29.10
2023-05-12T07:23:39.295Z,27.70
2023-05-12T07:26:07.333Z,25.70
2023-05-12T07:28:36.622Z,24.30
2023-05-12T07:31:10.103Z,23.80
2023-05-12T07:33:39.487Z,23.50
2023-05-12T07:36:08.925Z,23.30
2023-05-12T07:38:37.001Z,23.20
2023-05-12T07:41:04.748Z,22.90
2023-05-12T07:43:31.871Z,22.70
2023-05-12T07:46:01.039Z,22.40
2023-05-12T07:48:35.539Z,21.80
2023-05-12T07:51:12.484Z,21.60
2023-05-12T07:53:50.751Z,21.00
2023-05-12T07:56:18.099Z,20.80
2023-05-12T07:58:46.758Z,20.50
2023-05-12T08:01:15.354Z,20.50
2023-05-12T08:03:42.674Z,20.30
2023-05-12T08:06:10.672Z,20.30
2023-05-12T08:08:37.803Z,20.40
2023-05-12T08:11:05.224Z,20.50
2023-05-12T08:13:32.246Z,20.20
2023-05-12T08:15:59.780Z,20.40
2023-05-12T08:18:32.418Z,20.40
2023-05-12T08:20:59.786Z,20.40
2023-05-12T08:23:26.851Z,20.40
2023-05-12T08:25:54.081Z,20.30
2023-05-12T08:28:21.236Z,20.20
2023-05-12T08:30:48.718Z,20.40
2023-05-12T08:33:18.125Z,20.20
2023-05-12T08:35:45.529Z,20.20
2023-05-12T08:38:12.659Z,20.40
2023-05-12T08:41:15.382Z,20.20
2023-05-12T08:43:47.635Z,20.00
2023-05-12T08:46:15.647Z,19.80
2023-05-12T08:48:45.101Z,19.70
2023-05-12T08:51:13.975Z,19.90
2023-05-12T08:53:42.334Z,20.10
2023-05-12T08:58:44.854Z,19.80
2023-05-12T09:01:12.825Z,19.70
2023-05-12T09:03:40.030Z,19.70
2023-05-12T09:06:08.964Z,19.70
2023-05-12T09:08:37.504Z,19.70
2023-05-12T09:11:04.908Z,19.70
2023-05-12T09:13:50.711Z,19.70
2023-05-12T09:16:23.553Z,19.60
2023-05-12T09:18:56.765Z,19.50
2023-05-12T09:21:24.797Z,19.40
2023-05-12T09:23:58.526Z,19.70
2023-05-12T09:26:27.540Z,19.80
2023-05-12T09:29:08.507Z,19.60
2023-05-12T09:31:36.588Z,19.70
2023-05-12T09:34:12.381Z,19.80
2023-05-12T09:36:39.712Z,19.80
2023-05-12T09:39:08.137Z,20.00
2023-05-12T09:41:36.934Z,19.90
2023-05-12T09:44:04.635Z,19.70
2023-05-12T09:46:32.493Z,19.50
2023-05-12T09:49:00.032Z,19.50
2023-05-12T09:51:27.849Z,19.60
2023-05-12T09:53:55.047Z,19.60
2023-05-12T09:56:22.870Z,19.80
2023-05-12T09:58:50.336Z,19.60
2023-05-12T10:01:23.115Z,19.60
2023-05-12T10:03:55.857Z,19.50
2023-05-12T10:06:28.377Z,19.20
2023-05-12T10:09:09.090Z,19.10
2023-05-12T10:11:36.843Z,19.10
2023-05-12T10:14:05.093Z,19.20
2023-05-12T10:16:33.425Z,19.20
2023-05-12T10:19:01.873Z,19.20
2023-05-12T10:21:29.699Z,19.10
2023-05-12T10:23:57.991Z,19.10
2023-05-12T10:26:27.371Z,19.20
2023-05-12T10:28:54.765Z,19.10
2023-05-12T10:31:23.439Z,19.20
2023-05-12T10:34:01.242Z,19.40
2023-05-12T10:36:29.089Z,19.40
2023-05-12T10:39:04.210Z,19.30
2023-05-12T10:41:35.464Z,19.30
2023-05-12T10:44:02.489Z,19.20
2023-05-12T10:46:30.822Z,19.30
2023-05-12T10:49:04.304Z,19.20
2023-05-12T10:51:48.489Z,19.40
2023-05-12T10:54:25.194Z,19.40
2023-05-12T10:56:53.407Z,19.30
2023-05-12T10:59:22.813Z,19.30
2023-05-12T11:02:03.954Z,19.30
2023-05-12T11:04:46.350Z,19.40
2023-05-12T11:07:16.706Z,19.50
2023-05-12T11:12:16.545Z,19.40
2023-05-12T11:14:46.536Z,19.40
2023-05-12T11:17:14.968Z,19.40
2023-05-12T11:19:50.403Z,19.40
2023-05-12T11:22:20.142Z,19.30
2023-05-12T11:24:48.524Z,19.40
2023-05-12T11:27:17.873Z,19.50
2023-05-12T11:29:47.236Z,19.60
2023-05-12T11:32:15.853Z,19.70
2023-05-12T11:34:45.485Z,19.60
2023-05-12T11:37:14.855Z,19.60
2023-05-12T11:39:42.148Z,19.50
2023-05-12T11:42:13.625Z,19.40
2023-05-12T11:44:47.982Z,19.40
2023-05-12T11:47:16.859Z,19.40
2023-05-12T11:49:48.202Z,19.50
2023-05-12T11:52:16.393Z,19.60
2023-05-12T11:55:00.810Z,19.60
2023-05-12T11:57:38.486Z,19.50
2023-05-12T12:00:07.785Z,19.60
2023-05-12T12:02:43.279Z,19.50
2023-05-12T12:05:17.626Z,19.60
2023-05-12T12:07:45.202Z,19.60
2023-05-12T12:10:14.148Z,19.60
2023-05-12T12:12:42.097Z,19.60
2023-05-12T12:15:10.658Z,19.50
2023-05-12T12:17:39.924Z,19.50
2023-05-12T12:20:09.237Z,19.60
2023-05-12T12:22:36.703Z,19.60
2023-05-12T12:25:04.347Z,19.70
2023-05-12T12:27:31.724Z,19.70
2023-05-12T12:29:58.951Z,19.60
2023-05-12T12:32:27.062Z,19.60
2023-05-12T12:34:54.360Z,19.60
2023-05-12T12:37:21.786Z,19.60
2023-05-12T12:39:48.762Z,19.50
2023-05-12T12:42:16.112Z,19.60
2023-05-12T12:44:46.059Z,19.70
2023-05-12T12:47:16.066Z,19.60
2023-05-12T12:49:43.133Z,19.60
2023-05-12T12:52:10.799Z,19.50
2023-05-12T12:54:37.818Z,19.60
2023-05-12T12:57:06.670Z,19.60
2023-05-12T12:59:34.248Z,19.60
2023-05-12T13:02:02.528Z,19.60
2023-05-12T13:04:29.873Z,19.60
2023-05-12T13:06:57.150Z,19.60
2023-05-12T13:09:24.548Z,19.50
2023-05-12T13:11:51.891Z,19.60
2023-05-12T13:14:19.740Z,19.50
2023-05-12T13:16:47.022Z,19.70
2023-05-12T13:19:14.377Z,19.70
2023-05-12T13:21:42.016Z,19.80
2023-05-12T13:24:09.062Z,19.70
2023-05-12T13:26:36.536Z,19.70
2023-05-12T13:29:04.307Z,19.70
2023-05-12T13:31:31.714Z,19.80
2023-05-12T13:33:58.707Z,19.70
2023-05-12T13:36:26.904Z,19.70
2023-05-12T13:38:54.359Z,19.70
2023-05-12T13:41:21.814Z,19.80
2023-05-12T13:43:48.849Z,19.80
2023-05-12T13:46:16.362Z,19.80
2023-05-12T13:48:43.388Z,19.80
2023-05-12T13:51:10.819Z,19.80
2023-05-12T13:53:40.101Z,19.80
2023-05-12T13:56:16.649Z,19.80
2023-05-12T13:58:44.372Z,19.90
2023-05-12T14:01:12.711Z,19.90
2023-05-12T14:03:40.452Z,19.90
2023-05-12T14:06:08.173Z,19.70
2023-05-12T14:08:35.305Z,19.60
2023-05-12T14:11:02.660Z,19.60
2023-05-12T14:13:30.259Z,19.60
2023-05-12T14:15:58.375Z,19.70
2023-05-12T14:18:26.004Z,19.70
2023-05-12T14:20:53.413Z,19.70
2023-05-12T14:23:20.592Z,19.70
2023-05-12T14:25:50.142Z,19.70
2023-05-12T14:28:19.361Z,19.70
2023-05-12T14:30:48.653Z,19.70
2023-05-12T14:33:15.972Z,19.70
2023-05-12T14:35:46.349Z,19.70
2023-05-12T14:38:17.719Z,19.70
2023-05-12T14:40:48.013Z,19.70
2023-05-12T14:43:16.535Z,19.70
2023-05-12T14:45:44.327Z,19.60
2023-05-12T14:48:11.489Z,19.70
2023-05-12T14:50:42.956Z,19.70
2023-05-12T14:53:10.068Z,19.60
2023-05-12T14:55:37.335Z,19.60
2023-05-12T14:58:07.897Z,19.60
2023-05-12T15:00:36.318Z,19.60
2023-05-12T15:03:05.494Z,19.60
2023-05-12T15:05:52.761Z,19.60
2023-05-12T15:08:21.471Z,19.60
2023-05-12T15:10:49.078Z,19.50
2023-05-12T15:13:18.303Z,19.50
2023-05-12T15:15:46.865Z,19.60
2023-05-12T15:18:15.143Z,19.60
2023-05-12T15:20:42.476Z,19.50
2023-05-12T15:23:09.577Z,19.40
2023-05-12T15:25:40.287Z,19.40
2023-05-12T15:28:07.833Z,19.40
2023-05-12T15:30:36.000Z,19.30
2023-05-12T15:33:06.636Z,19.30
2023-05-12T15:35:34.397Z,19.20
2023-05-12T15:38:01.433Z,19.30
2023-05-12T15:40:30.967Z,19.30
2023-05-12T15:42:59.820Z,19.30
2023-05-12T15:45:27.104Z,19.20
2023-05-12T15:47:54.194Z,19.20
2023-05-12T15:50:22.972Z,19.20
2023-05-12T15:52:50.836Z,19.20
2023-05-12T15:55:18.428Z,19.20
2023-05-12T15:57:45.542Z,19.20
2023-05-12T16:00:14.807Z,19.20
2023-05-12T16:02:41.973Z,19.20
2023-05-12T16:05:09.932Z,19.20
2023-05-12T16:07:37.051Z,19.10
2023-05-12T16:10:05.282Z,19.10
2023-05-12T16:12:32.458Z,19.20
2023-05-12T16:15:00.284Z,19.10
2023-05-12T16:17:27.872Z,19.10
2023-05-12T16:19:56.938Z,19.20
2023-05-12T16:22:23.990Z,19.10
2023-05-12T16:24:51.382Z,19.00
2023-05-12T16:27:19.979Z,19.00
2023-05-12T16:29:49.494Z,18.90
2023-05-12T16:32:17.408Z,18.90
2023-05-12T16:34:45.102Z,18.80
2023-05-12T16:37:12.172Z,18.80
2023-05-12T16:39:39.920Z,18.70
2023-05-12T16:42:07.307Z,18.70
2023-05-12T16:44:35.601Z,18.70
2023-05-12T16:47:02.760Z,18.60
2023-05-12T16:49:30.150Z,18.70
2023-05-12T16:51:57.383Z,18.60
2023-05-12T16:54:24.874Z,18.60
2023-05-12T16:56:51.899Z,18.50
2023-05-12T16:59:19.379Z,18.50
2023-05-12T17:01:47.098Z,18.50
2023-05-12T17:04:15.593Z,18.50
2023-05-12T17:06:43.288Z,18.50
2023-05-12T17:09:10.584Z,18.50
2023-05-12T17:11:37.671Z,18.50
2023-05-12T17:14:05.001Z,18.30
2023-05-12T17:16:32.174Z,18.30
2023-05-12T17:21:29.698Z,18.20
2023-05-12T17:23:57.230Z,18.20
2023-05-12T17:26:27.566Z,18.10
2023-05-12T17:28:55.672Z,18.10
2023-05-12T17:31:24.309Z,18.00
2023-05-12T17:33:51.713Z,17.90
2023-05-12T17:36:18.955Z,17.80
2023-05-12T17:38:46.656Z,17.80
2023-05-12T17:41:16.643Z,17.70
2023-05-12T17:43:44.132Z,17.70
2023-05-12T17:46:11.294Z,17.60
2023-05-12T17:48:39.017Z,17.60
2023-05-12T17:51:06.627Z,17.50
2023-05-12T17:53:34.410Z,17.50
2023-05-12T17:56:01.751Z,17.40
2023-05-12T17:58:32.406Z,17.30
2023-05-12T18:00:59.748Z,17.30
2023-05-12T18:03:27.109Z,17.20
2023-05-12T18:05:54.418Z,17.10
2023-05-12T18:08:22.184Z,17.00
2023-05-12T18:10:49.225Z,16.90
2023-05-12T18:13:16.710Z,16.80
2023-05-12T18:15:43.797Z,16.70
2023-05-12T18:18:14.532Z,16.60
2023-05-12T18:20:42.220Z,16.60
2023-05-12T18:23:09.709Z,16.40
2023-05-12T18:25:36.693Z,16.30
2023-05-12T18:28:04.326Z,16.20
2023-05-12T18:30:31.964Z,16.00
2023-05-12T18:33:00.516Z,15.90
2023-05-12T18:35:27.883Z,15.70
2023-05-12T18:37:55.252Z,15.60
2023-05-12T18:40:22.421Z,15.50
2023-05-12T18:42:50.716Z,15.40
2023-05-12T18:45:18.694Z,15.30
2023-05-12T18:47:46.319Z,15.20
2023-05-12T18:50:13.993Z,15.10
2023-05-12T18:52:42.499Z,15.00
2023-05-12T18:55:09.680Z,15.00
2023-05-12T18:57:37.112Z,14.90
2023-05-12T19:00:04.886Z,14.80
2023-05-12T19:02:32.258Z,14.80
2023-05-12T19:04:59.727Z,14.70
2023-05-12T19:07:27.230Z,14.60
2023-05-12T19:09:54.391Z,14.60
2023-05-12T19:12:21.842Z,14.50
2023-05-12T19:14:50.814Z,14.40
2023-05-12T19:17:18.459Z,14.40
2023-05-12T19:19:45.497Z,14.30
2023-05-12T19:22:13.084Z,14.20
2023-05-12T19:24:40.351Z,14.10
2023-05-12T19:27:11.042Z,14.10
2023-05-12T19:29:38.279Z,14.00
2023-05-12T19:32:06.365Z,14.00
2023-05-12T19:34:33.475Z,13.90
2023-05-12T19:37:01.241Z,13.90
2023-05-12T19:39:28.724Z,13.80
2023-05-12T19:41:56.052Z,13.70
2023-05-12T19:44:23.193Z,13.70
2023-05-12T19:46:50.979Z,13.60
2023-05-12T19:49:18.095Z,13.60
2023-05-12T19:51:45.802Z,13.60
2023-05-12T19:54:13.623Z,13.60
2023-05-12T19:56:41.028Z,13.60
2023-05-12T19:59:08.093Z,13.50
2023-05-12T20:01:35.641Z,13.50
2023-05-12T20:04:02.781Z,13.40
2023-05-12T20:06:31.304Z,13.40
2023-05-12T20:08:58.257Z,13.30
2023-05-12T20:11:25.736Z,13.30
2023-05-12T20:13:55.764Z,13.30
2023-05-12T20:16:23.101Z,13.20
2023-05-12T20:18:50.915Z,13.10
2023-05-12T20:21:18.522Z,13.00
2023-05-12T20:23:45.566Z,13.00
2023-05-12T20:26:13.481Z,12.90
2023-05-12T20:28:41.124Z,12.90
2023-05-12T20:31:10.205Z,12.80
2023-05-12T20:33:37.253Z,12.80
2023-05-12T20:36:05.027Z,12.70
2023-05-12T20:38:34.683Z,12.70
2023-05-12T20:41:09.394Z,12.60
2023-05-12T20:43:36.543Z,12.60
2023-05-12T20:46:04.810Z,12.50
2023-05-12T20:48:32.899Z,12.50
2023-05-12T20:51:10.274Z,12.40
2023-05-12T20:53:37.369Z,12.30
2023-05-12T20:56:04.967Z,12.30
2023-05-12T20:58:32.245Z,12.20
2023-05-12T21:01:00.588Z,12.10
2023-05-12T21:03:28.711Z,12.10
2023-05-12T21:05:56.081Z,12.10
2023-05-12T21:08:23.134Z,12.00
2023-05-12T21:10:50.603Z,12.00
2023-05-12T21:13:17.891Z,12.00
2023-05-12T21:15:45.239Z,11.90
2023-05-12T21:18:13.266Z,11.80
2023-05-12T21:20:40.627Z,11.80
2023-05-12T21:23:11.507Z,11.70
2023-05-12T21:25:39.293Z,11.70
2023-05-12T21:28:07.116Z,11.60
2023-05-12T21:30:37.192Z,11.60
2023-05-12T21:33:05.008Z,11.60
2023-05-12T21:35:34.996Z,11.70
2023-05-12T21:38:02.047Z,11.70
2023-05-12T21:40:30.249Z,11.60
2023-05-12T21:42:57.353Z,11.60
2023-05-12T21:45:26.754Z,11.70
2023-05-12T21:47:54.056Z,11.70
2023-05-12T21:50:21.881Z,11.70
2023-05-12T21:52:49.811Z,11.60
2023-05-12T21:55:17.212Z,11.60
2023-05-12T21:57:44.207Z,11.60
2023-05-12T22:00:12.992Z,11.50
2023-05-12T22:02:41.073Z,11.50
2023-05-12T22:05:09.043Z,11.40
2023-05-12T22:07:36.058Z,11.40
2023-05-12T22:10:05.836Z,11.50
2023-05-12T22:12:32.852Z,11.50
2023-05-12T22:15:00.835Z,11.50
2023-05-12T22:17:28.115Z,11.50
2023-05-12T22:19:55.733Z,11.40
2023-05-12T22:22:22.846Z,11.30
2023-05-12T22:24:50.202Z,11.30
2023-05-12T22:27:21.262Z,11.20
2023-05-12T22:29:49.706Z,11.10
2023-05-12T22:32:16.779Z,11.10
2023-05-12T22:34:44.054Z,11.00
2023-05-12T22:37:11.210Z,11.00
2023-05-12T22:39:38.825Z,11.00
2023-05-12T22:42:06.415Z,11.00
2023-05-12T22:44:33.805Z,10.90
2023-05-12T22:47:01.108Z,11.10
2023-05-12T22:49:28.424Z,11.20
2023-05-12T22:51:55.524Z,11.20
2023-05-12T22:54:22.851Z,11.20
2023-05-12T22:56:49.829Z,11.20
2023-05-12T22:59:17.338Z,11.10
2023-05-12T23:01:44.605Z,11.00
2023-05-12T23:04:12.190Z,10.90
2023-05-12T23:06:39.239Z,10.80
2023-05-12T23:09:06.537Z,10.90
2023-05-12T23:11:33.539Z,10.90
2023-05-12T23:14:00.893Z,10.90
2023-05-12T23:16:28.256Z,10.90
2023-05-12T23:18:55.677Z,10.90
2023-05-12T23:21:22.704Z,10.90
2023-05-12T23:23:50.116Z,10.90
2023-05-12T23:26:17.175Z,10.90
2023-05-12T23:28:44.606Z,10.80
2023-05-12T23:31:11.623Z,10.70
2023-05-12T23:33:39.154Z,10.70
2023-05-12T23:36:06.710Z,10.60
2023-05-12T23:38:33.998Z,10.60
2023-05-12T23:41:01.081Z,10.50
2023-05-12T23:43:28.440Z,10.50
2023-05-12T23:45:55.534Z,10.50
2023-05-12T23:48:23.006Z,10.50
2023-05-12T23:50:50.306Z,10.60
2023-05-12T23:53:17.174Z,10.60
2023-05-12T23:55:44.470Z,10.60
2023-05-12T23:58:12.164Z,10.60
